createdAt,value
2024-04-18T00:00:14.334Z,101144.75
2024-04-18T00:01:22.212Z,101144.72
2024-04-18T00:02:27.450Z,101149.03
2024-04-18T00:03:31.762Z,101148.13
2024-04-18T00:04:43.487Z,101140.31
2024-04-18T00:05:45.892Z,101144.63
2024-04-18T00:06:48.353Z,101154.09
2024-04-18T00:07:52.022Z,101140.25
2024-04-18T00:08:54.537Z,101151.44
2024-04-18T00:10:03.949Z,101151.41
2024-04-18T00:11:12.786Z,101152.25
2024-04-18T00:12:16.059Z,101146.19
2024-04-18T00:13:22.984Z,101146.19
2024-04-18T00:14:45.851Z,101149.63
2024-04-18T00:15:56.920Z,101148.75
2024-04-18T00:17:10.748Z,101157.34
2024-04-18T00:18:13.673Z,101153.00
2024-04-18T00:19:21.701Z,101146.94
2024-04-18T00:20:42.750Z,101152.94
2024-04-18T00:21:58.281Z,101147.69
2024-04-18T00:23:03.465Z,101157.13
2024-04-18T00:24:06.650Z,101152.75
2024-04-18T00:25:27.049Z,101153.47
2024-04-18T00:26:29.629Z,101153.38
2024-04-18T00:27:38.114Z,101155.09
2024-04-18T00:28:40.594Z,101158.50
2024-04-18T00:29:54.783Z,101149.84
2024-04-18T00:30:57.509Z,101148.94
2024-04-18T00:32:01.806Z,101156.72
2024-04-18T00:33:13.588Z,101156.72
2024-04-18T00:34:17.015Z,101154.97
2024-04-18T00:35:26.306Z,101161.00
2024-04-18T00:36:52.847Z,101155.81
2024-04-18T00:38:01.517Z,101171.31
2024-04-18T00:39:16.314Z,101166.94
2024-04-18T00:40:33.925Z,101163.47
2024-04-18T00:41:58.217Z,101170.34
2024-04-18T00:43:08.629Z,101172.91
2024-04-18T00:44:17.337Z,101173.78
2024-04-18T00:45:24.211Z,101169.44
2024-04-18T00:46:28.471Z,101166.00
2024-04-18T00:47:39.227Z,101172.00
2024-04-18T00:48:45.305Z,101170.25
2024-04-18T00:49:48.082Z,101169.34
2024-04-18T00:50:52.544Z,101174.47
2024-04-18T00:52:01.176Z,101171.84
2024-04-18T00:53:04.631Z,101171.75
2024-04-18T00:54:08.069Z,101174.31
2024-04-18T00:55:11.726Z,101170.88
2024-04-18T00:56:32.417Z,101176.03
2024-04-18T00:57:55.277Z,101176.84
2024-04-18T00:59:18.197Z,101177.72
2024-04-18T01:00:42.699Z,101170.78
2024-04-18T01:02:04.162Z,101181.94
2024-04-18T01:03:15.440Z,101178.47
2024-04-18T01:04:18.128Z,101175.00
2024-04-18T01:05:43.801Z,101170.66
2024-04-18T01:06:56.314Z,101174.97
2024-04-18T01:08:03.519Z,101173.22
2024-04-18T01:09:26.166Z,101171.44
2024-04-18T01:10:46.823Z,101175.72
2024-04-18T01:11:49.266Z,101178.31
2024-04-18T01:13:02.315Z,101183.47
2024-04-18T01:14:24.750Z,101182.59
2024-04-18T01:15:39.472Z,101183.41
2024-04-18T01:16:41.986Z,101175.63
2024-04-18T01:17:44.493Z,101188.56
2024-04-18T01:18:46.949Z,101179.13
2024-04-18T01:19:52.520Z,101179.94
2024-04-18T01:20:55.378Z,101188.53
2024-04-18T01:22:05.478Z,101191.13
2024-04-18T01:23:09.509Z,101187.69
2024-04-18T01:24:22.045Z,101183.34
2024-04-18T01:25:44.534Z,101182.47
2024-04-18T01:28:01.109Z,101184.16
2024-04-18T01:29:05.367Z,101187.63
2024-04-18T01:30:14.610Z,101185.91
2024-04-18T01:31:19.104Z,101184.16
2024-04-18T01:32:23.608Z,101186.72
2024-04-18T01:33:28.570Z,101184.16
2024-04-18T01:34:31.601Z,101185.00
2024-04-18T01:35:52.279Z,101184.97
2024-04-18T01:36:58.878Z,101190.16
2024-04-18T01:38:05.319Z,101182.34
2024-04-18T01:39:25.386Z,101192.69
2024-04-18T01:40:42.357Z,101191.81
2024-04-18T01:42:02.941Z,101186.63
2024-04-18T01:43:17.449Z,101192.63
2024-04-18T01:44:38.788Z,101195.22
2024-04-18T01:46:00.040Z,101198.59
2024-04-18T01:47:02.473Z,101190.81
2024-04-18T01:48:08.199Z,101194.25
2024-04-18T01:49:31.254Z,101193.31
2024-04-18T01:50:33.650Z,101196.69
2024-04-18T01:51:36.920Z,101195.88
2024-04-18T01:52:59.790Z,101198.41
2024-04-18T01:54:20.796Z,101195.72
2024-04-18T01:55:36.833Z,101195.63
2024-04-18T01:57:01.266Z,101199.88
2024-04-18T01:58:24.857Z,101200.59
2024-04-18T01:59:28.633Z,101192.78
2024-04-18T02:00:32.066Z,101203.09
2024-04-18T02:01:34.820Z,101201.28
2024-04-18T02:02:38.757Z,101196.94
2024-04-18T02:03:44.028Z,101203.84
2024-04-18T02:04:49.597Z,101204.69
2024-04-18T02:06:12.049Z,101202.09
2024-04-18T02:07:24.724Z,101200.38
2024-04-18T02:08:39.424Z,101206.41
2024-04-18T02:09:55.824Z,101207.25
2024-04-18T02:11:01.873Z,101204.69
2024-04-18T02:12:28.675Z,101206.38
2024-04-18T02:13:57.815Z,101202.00
2024-04-18T02:15:01.360Z,101204.53
2024-04-18T02:16:03.716Z,101207.06
2024-04-18T02:17:25.454Z,101204.44
2024-04-18T02:18:39.762Z,101200.91
2024-04-18T02:19:48.296Z,101200.00
2024-04-18T02:21:09.500Z,101201.59
2024-04-18T02:22:26.144Z,101203.22
2024-04-18T02:23:47.087Z,101206.66
2024-04-18T02:25:10.183Z,101203.19
2024-04-18T02:26:12.541Z,101202.31
2024-04-18T02:27:17.049Z,101204.91
2024-04-18T02:28:20.790Z,101208.34
2024-04-18T02:29:46.064Z,101208.34
2024-04-18T02:31:08.768Z,101208.28
2024-04-18T02:32:25.723Z,101211.69
2024-04-18T02:33:31.439Z,101211.69
2024-04-18T02:34:53.134Z,101208.25
2024-04-18T02:36:07.593Z,101210.88
2024-04-18T02:37:18.335Z,101218.59
2024-04-18T02:38:29.802Z,101215.16
2024-04-18T02:39:32.346Z,101209.09
2024-04-18T02:41:11.597Z,101217.75
2024-04-18T02:42:37.403Z,101216.84
2024-04-18T02:43:41.110Z,101214.28
2024-04-18T02:44:43.414Z,101217.75
2024-04-18T02:45:50.368Z,101218.66
2024-04-18T02:47:21.625Z,101220.41
2024-04-18T02:48:42.522Z,101217.78
2024-04-18T02:50:14.837Z,101220.38
2024-04-18T02:51:17.572Z,101222.06
2024-04-18T02:52:27.492Z,101222.09
2024-04-18T02:53:37.111Z,101218.66
2024-04-18T02:54:42.088Z,101216.91
2024-04-18T02:55:44.577Z,101216.91
2024-04-18T02:57:06.512Z,101222.97
2024-04-18T02:58:12.174Z,101219.56
2024-04-18T02:59:17.690Z,101218.72
2024-04-18T03:00:26.825Z,101226.44
2024-04-18T03:01:44.654Z,101221.28
2024-04-18T03:02:47.050Z,101223.88
2024-04-18T03:03:52.584Z,101220.47
2024-04-18T03:05:08.304Z,101219.56
2024-04-18T03:06:10.974Z,101228.19
2024-04-18T03:07:16.287Z,101233.31
2024-04-18T03:08:28.852Z,101227.19
2024-04-18T03:10:04.939Z,101225.28
2024-04-18T03:11:27.679Z,101224.28
2024-04-18T03:12:45.590Z,101226.81
2024-04-18T03:14:02.923Z,101232.78
2024-04-18T03:15:06.573Z,101233.66
2024-04-18T03:16:18.938Z,101236.19
2024-04-18T03:17:25.236Z,101241.31
2024-04-18T03:18:46.063Z,101238.66
2024-04-18T03:19:54.691Z,101236.84
2024-04-18T03:21:03.430Z,101231.66
2024-04-18T03:22:23.866Z,101246.22
2024-04-18T03:23:33.420Z,101239.25
2024-04-18T03:24:43.717Z,101236.66
2024-04-18T03:26:06.497Z,101240.91
2024-04-18T03:27:13.235Z,101244.38
2024-04-18T03:28:18.592Z,101251.22
2024-04-18T03:29:27.330Z,101249.53
2024-04-18T03:30:32.630Z,101254.72
2024-04-18T03:31:47.026Z,101242.66
2024-04-18T03:32:51.976Z,101246.09
2024-04-18T03:34:12.897Z,101252.19
2024-04-18T03:35:28.365Z,101247.88
2024-04-18T03:36:53.623Z,101243.50
2024-04-18T03:38:06.206Z,101255.53
2024-04-18T03:39:10.698Z,101248.63
2024-04-18T03:40:13.032Z,101251.19
2024-04-18T03:41:35.617Z,101256.41
2024-04-18T03:42:53.050Z,101248.63
2024-04-18T03:43:55.806Z,101252.13
2024-04-18T03:44:58.830Z,101256.41
2024-04-18T03:46:13.919Z,101259.88
2024-04-18T03:47:42.222Z,101262.41
2024-04-18T03:48:49.078Z,101258.06
2024-04-18T03:49:52.545Z,101252.06
2024-04-18T03:51:17.771Z,101253.75
2024-04-18T03:52:39.952Z,101258.97
2024-04-18T03:54:05.215Z,101254.66
2024-04-18T03:55:28.441Z,101260.69
2024-04-18T03:56:33.289Z,101255.53
2024-04-18T03:57:52.414Z,101257.25
2024-04-18T03:59:13.592Z,101255.53
2024-04-18T04:00:19.731Z,101253.78
2024-04-18T04:01:27.056Z,101252.94
2024-04-18T04:02:33.652Z,101258.97
2024-04-18T04:03:47.299Z,101257.28
2024-04-18T04:04:52.304Z,101257.31
2024-04-18T04:05:55.762Z,101260.81
2024-04-18T04:07:07.479Z,101261.72
2024-04-18T04:08:16.754Z,101262.59
2024-04-18T04:09:19.140Z,101262.63
2024-04-18T04:10:24.753Z,101267.00
2024-04-18T04:11:27.481Z,101264.44
2024-04-18T04:12:29.924Z,101267.94
2024-04-18T04:13:45.856Z,101270.53
2024-04-18T04:14:55.489Z,101274.00
2024-04-18T04:15:58.460Z,101270.53
2024-04-18T04:17:15.141Z,101269.69
2024-04-18T04:18:18.156Z,101271.41
2024-04-18T04:19:22.060Z,101271.44
2024-04-18T04:20:29.502Z,101266.28
2024-04-18T04:21:35.977Z,101273.16
2024-04-18T04:22:44.019Z,101270.59
2024-04-18T04:24:01.722Z,101272.34
2024-04-18T04:25:31.634Z,101274.91
2024-04-18T04:26:36.665Z,101271.44
2024-04-18T04:27:43.125Z,101274.03
2024-04-18T04:28:46.053Z,101276.63
2024-04-18T04:29:48.330Z,101276.63
2024-04-18T04:30:56.307Z,101277.53
2024-04-18T04:31:58.774Z,101275.81
2024-04-18T04:33:16.712Z,101274.97
2024-04-18T04:34:39.007Z,101276.63
2024-04-18T04:35:44.291Z,101282.66
2024-04-18T04:36:47.156Z,101284.34
2024-04-18T04:37:49.656Z,101288.66
2024-04-18T04:38:52.253Z,101286.91
2024-04-18T04:40:23.978Z,101292.84
2024-04-18T04:41:27.439Z,101302.28
2024-04-18T04:42:29.996Z,101296.97
2024-04-18T04:43:32.474Z,101297.81
2024-04-18T04:44:35.259Z,101302.09
2024-04-18T04:45:39.802Z,101302.09
2024-04-18T04:46:42.504Z,101295.19
2024-04-18T04:47:56.714Z,101302.97
2024-04-18T04:49:02.188Z,101302.97
2024-04-18T04:50:15.143Z,101297.72
2024-04-18T04:51:24.787Z,101314.06
2024-04-18T04:52:43.278Z,101311.31
2024-04-18T04:54:01.059Z,101312.94
2024-04-18T04:55:25.197Z,101312.84
2024-04-18T04:56:30.803Z,101315.44
2024-04-18T04:57:53.169Z,101319.75
2024-04-18T04:58:55.836Z,101315.44
2024-04-18T05:00:03.678Z,101318.88
2024-04-18T05:01:26.641Z,101323.22
2024-04-18T05:02:32.607Z,101323.22
2024-04-18T05:03:54.614Z,101321.50
2024-04-18T05:05:06.111Z,101328.41
2024-04-18T05:06:22.793Z,101319.78
2024-04-18T05:08:03.655Z,101322.31
2024-04-18T05:09:19.297Z,101322.34
2024-04-18T05:10:27.589Z,101325.81
2024-04-18T05:11:35.207Z,101327.56
2024-04-18T05:12:47.685Z,101329.34
2024-04-18T05:14:12.284Z,101331.19
2024-04-18T05:15:41.459Z,101330.34
2024-04-18T05:17:10.018Z,101329.53
2024-04-18T05:18:12.838Z,101333.84
2024-04-18T05:19:16.336Z,101326.06
2024-04-18T05:20:21.358Z,101331.22
2024-04-18T05:21:25.246Z,101334.66
2024-04-18T05:22:53.986Z,101330.28
2024-04-18T05:24:00.586Z,101336.31
2024-04-18T05:25:02.856Z,101340.56
2024-04-18T05:26:11.305Z,101331.09
2024-04-18T05:27:15.193Z,101335.44
2024-04-18T05:28:58.045Z,101333.75
2024-04-18T05:30:21.127Z,101344.16
2024-04-18T05:31:27.382Z,101336.53
2024-04-18T05:32:33.338Z,101334.84
2024-04-18T05:33:45.671Z,101340.94
2024-04-18T05:34:49.224Z,101345.34
2024-04-18T05:36:02.585Z,101341.97
2024-04-18T05:37:13.555Z,101339.47
2024-04-18T05:38:28.286Z,101343.88
2024-04-18T05:39:41.483Z,101338.84
2024-04-18T05:40:51.715Z,101343.25
2024-04-18T05:41:55.086Z,101343.31
2024-04-18T05:43:06.923Z,101342.56
2024-04-18T05:44:23.405Z,101342.69
2024-04-18T05:45:28.204Z,101340.19
2024-04-18T05:46:47.654Z,101346.25
2024-04-18T05:47:50.087Z,101352.34
2024-04-18T05:48:53.928Z,101347.25
2024-04-18T05:49:57.784Z,101346.47
2024-04-18T05:51:00.921Z,101356.03
2024-04-18T05:52:09.560Z,101351.84
2024-04-18T05:53:16.609Z,101349.44
2024-04-18T05:54:31.786Z,101356.47
2024-04-18T05:55:46.058Z,101346.22
2024-04-18T05:56:50.792Z,101349.00
2024-04-18T05:57:57.778Z,101349.09
2024-04-18T05:59:18.641Z,101347.50
2024-04-18T06:00:28.927Z,101345.03
2024-04-18T06:01:33.525Z,101350.31
2024-04-18T06:02:39.925Z,101353.94
2024-04-18T06:03:42.360Z,101349.78
2024-04-18T06:04:44.847Z,101348.25
2024-04-18T06:06:10.167Z,101350.22
2024-04-18T06:07:23.973Z,101352.22
2024-04-18T06:08:27.219Z,101348.16
2024-04-18T06:09:30.467Z,101348.44
2024-04-18T06:10:32.907Z,101349.47
2024-04-18T06:11:53.129Z,101343.69
2024-04-18T06:12:55.807Z,101347.28
2024-04-18T06:13:58.129Z,101350.09
2024-04-18T06:15:00.707Z,101353.69
2024-04-18T06:16:03.169Z,101347.84
2024-04-18T06:17:24.472Z,101349.78
2024-04-18T06:18:30.812Z,101352.56
2024-04-18T06:19:33.232Z,101356.16
2024-04-18T06:20:55.888Z,101352.00
2024-04-18T06:21:58.243Z,101352.06
2024-04-18T06:23:00.825Z,101348.69
2024-04-18T06:24:03.237Z,101351.31
2024-04-18T06:25:05.914Z,101352.22
2024-04-18T06:26:08.287Z,101354.88
2024-04-18T06:27:10.986Z,101361.00
2024-04-18T06:28:14.863Z,101353.28
2024-04-18T06:29:17.293Z,101359.44
2024-04-18T06:30:20.061Z,101356.91
2024-04-18T06:31:23.971Z,101359.63
2024-04-18T06:32:26.724Z,101359.72
2024-04-18T06:33:31.375Z,101361.53
2024-04-18T06:34:34.735Z,101363.38
2024-04-18T06:35:37.147Z,101362.59
2024-04-18T06:36:39.947Z,101361.81
2024-04-18T06:37:42.335Z,101367.09
2024-04-18T06:38:44.752Z,101363.75
2024-04-18T06:39:47.339Z,101369.00
2024-04-18T06:40:49.925Z,101369.03
2024-04-18T06:41:53.810Z,101372.59
2024-04-18T06:42:56.738Z,101367.47
2024-04-18T06:43:59.519Z,101372.72
2024-04-18T06:45:02.197Z,101371.06
2024-04-18T06:46:04.971Z,101375.44
2024-04-18T06:47:07.825Z,101372.91
2024-04-18T06:48:10.998Z,101372.09
2024-04-18T06:49:13.344Z,101378.22
2024-04-18T06:50:17.351Z,101371.34
2024-04-18T06:51:19.967Z,101373.97
2024-04-18T06:52:22.527Z,101377.53
2024-04-18T06:53:24.824Z,101375.81
2024-04-18T06:54:27.923Z,101380.19
2024-04-18T06:55:30.621Z,101382.00
2024-04-18T06:56:32.978Z,101382.03
2024-04-18T06:57:35.792Z,101377.75
2024-04-18T06:58:38.165Z,101381.25
2024-04-18T06:59:40.921Z,101377.84
2024-04-18T07:00:43.457Z,101377.88
2024-04-18T07:01:46.708Z,101383.97
2024-04-18T07:02:49.102Z,101377.94
2024-04-18T07:04:10.162Z,101377.09
2024-04-18T07:05:12.827Z,101383.22
2024-04-18T07:06:24.668Z,101389.34
2024-04-18T07:07:37.658Z,101379.81
2024-04-18T07:09:00.388Z,101385.06
2024-04-18T07:10:18.199Z,101386.84
2024-04-18T07:11:29.570Z,101388.59
2024-04-18T07:12:32.141Z,101387.75
2024-04-18T07:13:54.918Z,101389.53
2024-04-18T07:15:07.011Z,101392.16
2024-04-18T07:16:18.575Z,101393.06
2024-04-18T07:17:30.037Z,101393.97
2024-04-18T07:18:41.908Z,101393.13
2024-04-18T07:19:44.743Z,101392.28
2024-04-18T07:21:07.091Z,101385.38
2024-04-18T07:22:12.630Z,101390.59
2024-04-18T07:23:30.764Z,101397.59
2024-04-18T07:24:38.818Z,101394.16
2024-04-18T07:25:41.629Z,101397.69
2024-04-18T07:27:02.855Z,101395.94
2024-04-18T07:28:06.027Z,101393.34
2024-04-18T07:29:08.398Z,101391.63
2024-04-18T07:30:11.258Z,101395.09
2024-04-18T07:31:22.662Z,101393.38
2024-04-18T07:32:45.842Z,101396.88
2024-04-18T07:33:49.557Z,101392.53
2024-04-18T07:34:52.252Z,101390.81
2024-04-18T07:35:55.838Z,101394.28
2024-04-18T07:37:01.580Z,101386.47
2024-04-18T07:38:04.009Z,101389.94
2024-04-18T07:39:06.720Z,101391.69
2024-04-18T07:40:20.082Z,101385.56
2024-04-18T07:41:22.615Z,101392.53
2024-04-18T07:42:25.481Z,101389.03
2024-04-18T07:43:27.829Z,101382.09
2024-04-18T07:44:30.509Z,101389.03
2024-04-18T07:45:33.173Z,101390.75
2024-04-18T07:46:35.832Z,101396.84
2024-04-18T07:47:40.192Z,101389.00
2024-04-18T07:48:43.072Z,101392.47
2024-04-18T07:49:49.269Z,101396.81
2024-04-18T07:50:52.741Z,101395.06
2024-04-18T07:51:57.471Z,101394.16
2024-04-18T07:53:07.970Z,101394.16
2024-04-18T07:54:12.606Z,101399.34
2024-04-18T07:55:16.091Z,101389.75
2024-04-18T07:56:20.050Z,101395.81
2024-04-18T07:57:25.414Z,101391.44
2024-04-18T07:58:29.500Z,101389.66
2024-04-18T07:59:33.078Z,101389.66
2024-04-18T08:00:37.075Z,101394.81
2024-04-18T08:01:43.110Z,101392.19
2024-04-18T08:02:49.206Z,101378.22
2024-04-18T08:04:07.518Z,101388.69
2024-04-18T08:05:17.434Z,101394.75
2024-04-18T08:06:25.281Z,101399.94
2024-04-18T08:07:32.644Z,101385.09
2024-04-18T08:08:39.460Z,101396.34
2024-04-18T08:09:46.556Z,101401.59
2024-04-18T08:11:08.420Z,101397.19
2024-04-18T08:13:22.314Z,101399.72
2024-04-18T08:14:30.587Z,101398.81
2024-04-18T08:16:47.124Z,101402.13
2024-04-18T08:17:50.880Z,101401.19
2024-04-18T08:18:53.285Z,101397.66
2024-04-18T08:19:56.939Z,101404.59
2024-04-18T08:21:00.949Z,101407.13
2024-04-18T08:22:04.672Z,101408.00
2024-04-18T08:23:07.904Z,101405.31
2024-04-18T08:24:20.523Z,101408.75
2024-04-18T08:25:22.928Z,101413.06
2024-04-18T08:26:25.793Z,101408.69
2024-04-18T08:27:28.463Z,101398.19
2024-04-18T08:28:31.629Z,101405.16
2024-04-18T08:29:34.592Z,101407.72
2024-04-18T08:30:37.117Z,101407.69
2024-04-18T08:31:40.992Z,101403.25
2024-04-18T08:32:43.465Z,101411.09
2024-04-18T08:33:57.741Z,101412.78
2024-04-18T08:35:07.358Z,101417.09
2024-04-18T08:36:09.792Z,101410.97
2024-04-18T08:37:12.443Z,101412.72
2024-04-18T08:38:16.230Z,101412.69
2024-04-18T08:39:19.837Z,101416.19
2024-04-18T08:40:23.283Z,101420.63
2024-04-18T08:41:26.398Z,101418.03
2024-04-18T08:42:30.130Z,101409.34
2024-04-18T08:43:32.638Z,101413.69
2024-04-18T08:44:35.615Z,101414.56
2024-04-18T08:45:40.571Z,101404.03
2024-04-18T08:46:46.267Z,101408.38
2024-04-18T08:47:50.058Z,101406.59
2024-04-18T08:48:53.394Z,101415.31
2024-04-18T08:49:57.062Z,101412.66
2024-04-18T08:51:03.137Z,101408.25
2024-04-18T08:52:08.056Z,101410.75
2024-04-18T08:53:13.003Z,101413.31
2024-04-18T08:54:16.043Z,101407.13
2024-04-18T08:55:18.736Z,101412.31
2024-04-18T08:56:25.793Z,101418.50
2024-04-18T08:57:29.785Z,101411.56
2024-04-18T08:58:32.967Z,101408.06
2024-04-18T08:59:35.982Z,101408.94
2024-04-18T09:00:45.328Z,101412.47
2024-04-18T09:01:48.790Z,101410.75
2024-04-18T09:02:54.649Z,101403.78
2024-04-18T09:03:59.608Z,101408.19
2024-04-18T09:05:02.462Z,101404.75
2024-04-18T09:06:06.526Z,101411.75
2024-04-18T09:07:08.942Z,101406.59
2024-04-18T09:08:14.140Z,101416.22
2024-04-18T09:09:20.099Z,101414.47
2024-04-18T09:10:24.770Z,101409.31
2024-04-18T09:11:27.189Z,101406.72
2024-04-18T09:12:30.550Z,101406.72
2024-04-18T09:13:32.961Z,101410.22
2024-04-18T09:14:36.043Z,101409.31
2024-04-18T09:15:38.872Z,101406.63
2024-04-18T09:16:41.767Z,101407.41
2024-04-18T09:17:44.467Z,101405.53
2024-04-18T09:18:46.935Z,101403.69
2024-04-18T09:19:49.642Z,101404.47
2024-04-18T09:20:52.445Z,101403.53
2024-04-18T09:21:55.797Z,101404.38
2024-04-18T09:22:58.590Z,101399.91
2024-04-18T09:24:02.249Z,101412.97
2024-04-18T09:25:10.008Z,101415.63
2024-04-18T09:26:12.652Z,101407.81
2024-04-18T09:27:17.673Z,101411.38
2024-04-18T09:28:21.365Z,101407.09
2024-04-18T09:29:23.740Z,101410.59
2024-04-18T09:30:26.901Z,101409.78
2024-04-18T09:31:38.272Z,101408.00
2024-04-18T09:32:46.222Z,101410.66
2024-04-18T09:33:51.626Z,101409.81
2024-04-18T09:34:56.979Z,101408.94
2024-04-18T09:36:01.830Z,101418.53
2024-04-18T09:37:09.483Z,101412.44
2024-04-18T09:38:15.885Z,101414.16
2024-04-18T09:39:29.894Z,101406.28
2024-04-18T09:40:35.438Z,101405.44
2024-04-18T09:41:40.849Z,101407.16
2024-04-18T09:42:53.442Z,101409.63
2024-04-18T09:44:02.672Z,101401.63
2024-04-18T09:45:06.589Z,101400.59
2024-04-18T09:46:12.212Z,101401.41
2024-04-18T09:47:18.656Z,101400.47
2024-04-18T09:48:22.800Z,101392.56
2024-04-18T09:49:27.044Z,101394.25
2024-04-18T09:50:31.558Z,101396.03
2024-04-18T09:51:34.969Z,101395.13
2024-04-18T09:52:39.992Z,101395.97
2024-04-18T09:53:43.334Z,101403.75
2024-04-18T09:54:46.189Z,101397.56
2024-04-18T09:55:50.248Z,101392.25
2024-04-18T09:56:55.857Z,101397.38
2024-04-18T09:57:59.763Z,101404.28
2024-04-18T09:59:02.604Z,101398.91
2024-04-18T10:00:07.746Z,101389.13
2024-04-18T10:01:15.898Z,101384.72
2024-04-18T10:02:18.650Z,101384.63
2024-04-18T10:03:21.930Z,101383.66
2024-04-18T10:04:24.916Z,101388.81
2024-04-18T10:05:28.738Z,101385.22
2024-04-18T10:06:37.676Z,101381.69
2024-04-18T10:07:42.227Z,101382.53
2024-04-18T10:08:52.131Z,101374.53
2024-04-18T10:09:56.141Z,101379.66
2024-04-18T10:11:01.663Z,101376.00
2024-04-18T10:12:05.836Z,101378.44
2024-04-18T10:13:11.482Z,101380.03
2024-04-18T10:14:13.837Z,101380.75
2024-04-18T10:15:21.377Z,101378.00
2024-04-18T10:16:24.085Z,101377.84
2024-04-18T10:17:33.306Z,101378.66
2024-04-18T10:18:37.676Z,101375.97
2024-04-18T10:19:47.106Z,101370.75
2024-04-18T10:20:50.576Z,101369.78
2024-04-18T10:23:04.520Z,101372.28
2024-04-18T10:24:07.542Z,101379.09
2024-04-18T10:25:22.140Z,101366.66
2024-04-18T10:26:25.202Z,101367.31
2024-04-18T10:27:27.742Z,101364.53
2024-04-18T10:28:32.093Z,101360.84
2024-04-18T10:29:35.040Z,101365.00
2024-04-18T10:30:41.762Z,101361.31
2024-04-18T10:31:44.692Z,101365.44
2024-04-18T10:32:49.850Z,101362.53
2024-04-18T10:33:53.987Z,101361.56
2024-04-18T10:34:57.385Z,101358.00
2024-04-18T10:35:59.922Z,101352.72
2024-04-18T10:37:08.145Z,101349.16
2024-04-18T10:38:10.854Z,101356.03
2024-04-18T10:39:30.543Z,101357.81
2024-04-18T10:40:36.436Z,101349.91
2024-04-18T10:41:48.928Z,101350.81
2024-04-18T10:42:51.821Z,101352.47
2024-04-18T10:43:56.132Z,101351.53
2024-04-18T10:44:59.519Z,101346.94
2024-04-18T10:46:02.530Z,101349.50
2024-04-18T10:47:06.551Z,101350.22
2024-04-18T10:48:10.072Z,101345.84
2024-04-18T10:49:12.802Z,101352.66
2024-04-18T10:50:16.852Z,101351.53
2024-04-18T10:51:26.318Z,101349.66
2024-04-18T10:52:30.037Z,101345.06
2024-04-18T10:53:38.924Z,101345.72
2024-04-18T10:54:41.960Z,101343.69
2024-04-18T10:55:44.767Z,101341.84
2024-04-18T10:56:47.275Z,101341.75
2024-04-18T10:57:51.017Z,101340.00
2024-04-18T10:58:53.353Z,101346.94
2024-04-18T10:59:56.561Z,101345.91
2024-04-18T11:01:01.201Z,101341.28
2024-04-18T11:02:08.389Z,101339.34
2024-04-18T11:03:12.223Z,101337.59
2024-04-18T11:04:14.934Z,101334.69
2024-04-18T11:05:17.659Z,101338.81
2024-04-18T11:06:23.042Z,101340.28
2024-04-18T11:07:25.958Z,101333.16
2024-04-18T11:08:34.982Z,101333.91
2024-04-18T11:09:41.287Z,101330.09
2024-04-18T11:10:46.411Z,101323.75
2024-04-18T11:11:50.403Z,101332.56
2024-04-18T11:12:52.984Z,101331.72
2024-04-18T11:13:57.763Z,101327.50
2024-04-18T11:15:01.723Z,101324.19
2024-04-18T11:16:04.770Z,101325.91
2024-04-18T11:17:09.010Z,101333.84
2024-04-18T11:18:12.025Z,101331.94
2024-04-18T11:19:15.703Z,101327.44
2024-04-18T11:20:21.326Z,101326.59
2024-04-18T11:21:27.299Z,101313.53
2024-04-18T11:22:29.913Z,101326.78
2024-04-18T11:23:39.776Z,101327.84
2024-04-18T11:24:49.626Z,101332.44
2024-04-18T11:25:53.811Z,101319.53
2024-04-18T11:26:57.845Z,101317.13
2024-04-18T11:28:00.903Z,101330.56
2024-04-18T11:29:03.279Z,101322.13
2024-04-18T11:30:10.933Z,101330.34
2024-04-18T11:31:13.477Z,101334.97
2024-04-18T11:32:16.750Z,101339.59
2024-04-18T11:33:22.597Z,101344.22
2024-04-18T11:34:26.793Z,101346.19
2024-04-18T11:35:29.748Z,101342.88
2024-04-18T11:36:32.331Z,101343.13
2024-04-18T11:37:40.900Z,101344.22
2024-04-18T11:38:43.459Z,101334.69
2024-04-18T11:39:46.222Z,101337.38
2024-04-18T11:40:48.712Z,101336.56
2024-04-18T11:41:52.101Z,101328.69
2024-04-18T11:42:55.039Z,101335.72
2024-04-18T11:43:57.922Z,101335.72
2024-04-18T11:45:01.761Z,101331.25
2024-04-18T11:46:04.834Z,101331.16
2024-04-18T11:47:07.590Z,101333.50
2024-04-18T11:48:10.270Z,101333.22
2024-04-18T11:49:13.326Z,101332.88
2024-04-18T11:50:16.359Z,101331.56
2024-04-18T11:51:18.964Z,101332.94
2024-04-18T11:52:22.121Z,101325.50
2024-04-18T11:53:33.274Z,101327.72
2024-04-18T11:54:36.338Z,101324.88
2024-04-18T11:55:38.865Z,101323.81
2024-04-18T11:57:00.018Z,101325.44
2024-04-18T11:58:08.942Z,101317.31
2024-04-18T11:59:11.796Z,101310.94
2024-04-18T12:00:15.034Z,101313.50
2024-04-18T12:01:36.855Z,101313.53
2024-04-18T12:02:54.728Z,101312.00
2024-04-18T12:03:57.720Z,101321.19
2024-04-18T12:05:08.070Z,101321.44
2024-04-18T12:06:24.123Z,101326.19
2024-04-18T12:07:27.356Z,101317.69
2024-04-18T12:08:30.865Z,101322.34
2024-04-18T12:09:38.593Z,101321.78
2024-04-18T12:10:41.499Z,101333.47
2024-04-18T12:11:43.994Z,101336.28
2024-04-18T12:12:47.020Z,101340.81
2024-04-18T12:13:58.120Z,101343.88
2024-04-18T12:15:01.044Z,101342.69
2024-04-18T12:16:03.580Z,101342.31
2024-04-18T12:17:07.088Z,101338.47
2024-04-18T12:18:19.246Z,101345.38
2024-04-18T12:19:26.196Z,101352.75
2024-04-18T12:20:28.631Z,101366.19
2024-04-18T12:21:31.988Z,101366.75
2024-04-18T12:22:34.804Z,101348.81
2024-04-18T12:23:50.055Z,101341.22
2024-04-18T12:25:10.219Z,101340.59
2024-04-18T12:26:12.873Z,101335.47
2024-04-18T12:27:21.602Z,101341.63
2024-04-18T12:28:30.797Z,101335.50
2024-04-18T12:29:33.081Z,101340.72
2024-04-18T12:30:36.238Z,101335.44
2024-04-18T12:31:55.651Z,101331.06
2024-04-18T12:32:58.010Z,101324.03
2024-04-18T12:34:01.345Z,101332.66
2024-04-18T12:35:03.971Z,101319.38
2024-04-18T12:36:11.144Z,101321.88
2024-04-18T12:37:13.601Z,101313.91
2024-04-18T12:38:16.412Z,101321.63
2024-04-18T12:39:19.225Z,101315.38
2024-04-18T12:40:22.434Z,101306.47
2024-04-18T12:41:45.348Z,101316.00
2024-04-18T12:42:52.078Z,101305.41
2024-04-18T12:43:54.536Z,101308.84
2024-04-18T12:45:16.359Z,101308.81
2024-04-18T12:46:23.623Z,101307.88
2024-04-18T12:47:27.288Z,101301.59
2024-04-18T12:48:30.001Z,101297.06
2024-04-18T12:49:33.646Z,101299.53
2024-04-18T12:50:37.685Z,101293.09
2024-04-18T12:51:40.292Z,101292.00
2024-04-18T12:52:44.936Z,101286.53
2024-04-18T12:53:47.844Z,101278.44
2024-04-18T12:54:50.850Z,101284.41
2024-04-18T12:56:00.405Z,101284.38
2024-04-18T12:57:03.655Z,101287.00
2024-04-18T12:58:07.019Z,101280.91
2024-04-18T12:59:10.299Z,101291.56
2024-04-18T13:00:20.967Z,101303.13
2024-04-18T13:01:32.880Z,101299.78
2024-04-18T13:02:55.177Z,101301.75